South Arkansas Regional At Goodwin Field
KELD : now visible

Airfield :











YOU CAN JOIN US ON...

 
LOGIN :

Register | Disclaimer

   EN    FR    IT 

 









Legend :    VFR   Marginal VFR   IFR   Intensive IFR   Very Intensive IFR
Visi :
Ceiling :
>= 8 km
>= 3000ft
5 to 8 km
1000 to 3000 ft
1500m to 5 km
500 to 1000 ft
800 to 1500m
200 to 500 ft
< 800m
< 200 ft
Symbols :   Thunderstorms  Fog  Heavy snow  Heavy precipitations  Wind > 20 kt






- Airport Elevation : 277 ft
- IATA code : ELD


KELD - South Arkansas Regional At Goodwin Field

CURRENT METAR :
  • 092353Z AUTO 01004KT 10SM CLR 21/11 A2986 RMK AO2 SLP110 60000 T02060111 10244 20206 56013

EXPIRED METARs :
  • 092253Z AUTO 02005KT 10SM CLR 22/11 A2987 RMK AO2 RAE53 SLP111 P0000 T02220106
  • 092153Z AUTO 03007KT 10SM -RA CLR 23/09 A2988 RMK AO2 SLP116 P0000 T02330094

TAF KELD
Valid from the 10 at 00:00 until the 11 at 00:00 UTC


092340Z 1000/1024 02005KT P6SM BKN250
FM100300 36004KT P6SM SCT100 BKN120 OVC250
FM101100 02010KT P6SM SCT250
FM101800 03007KT P6SM FEW250



MET'MAP, your aeronautical weather chart ! - Copyright ORBIFLY December 2007 - Disclaimer

ORBIFLY MET'MAP TEAM :

Programming & Development : Alexandra Zaïnal
Concept & original design : Baudouin d'Aumeries
Assistance for programming : Marc-Olivier Méhu
Technical & hardware support : Manuel Goepfert

Contact : metmap@orbifly.com




SOURCES & CREDITS :

   NOAA       Earth
Advisory